Flight Track Log - Related Links

Times and Time Zones

All times are in EST time to prevent confusion due to time zone crossing. See the UCA3596 flight status page for this flight to view local times or setup timezone preferences in your user account.

Time Position Orientation Groundspeed Altitude Reporting Facility
EST Latitude Longitude Course Direction KTS MPH feet Rate Location/Type
Tue 05:19:00 PM 39.4009 -77.2630 19° North  Level Estimated
Tue 05:20:00 PM 39.4512 -77.2410 19° North  Level Estimated
Tue 05:21:00 PM 39.5016 -77.2189 19° North  Level Estimated
Tue 05:22:00 PM 39.5519 -77.1968 19° North  Level Estimated
Tue 05:23:00 PM 39.6023 -77.1747 19° North  Level Estimated
Tue 05:24:00 PM 39.6526 -77.1525 19° North  Level Estimated
Tue 05:25:00 PM 39.7194 -77.1231 19° North  Level Estimated
Tue 05:26:00 PM 39.7862 -77.0936 19° North  Level Estimated
Tue 05:27:00 PM 39.8529 -77.0640 19° North  Level Estimated
Tue 05:28:00 PM 39.9197 -77.0343 19° North  Level Estimated
Tue 05:29:00 PM 39.9864 -77.0047 19° North  Level Estimated
Tue 05:30:00 PM 40.0532 -76.9749 19° North  Level Estimated
Tue 05:31:00 PM 40.1199 -76.9451 19° North  Level Estimated
Tue 05:32:00 PM 40.1866 -76.9153 19° North  Level Estimated
Tue 05:33:00 PM 40.2533 -76.8854 19° North  Level Estimated
Tue 05:34:00 PM 40.3201 -76.8554 19° North  Level Estimated
Tue 05:35:00 PM 40.3868 -76.8253 19° North  Level Estimated
Tue 05:36:00 PM 40.4534 -76.7952 19° North  Level Estimated
Tue 05:37:00 PM 40.5201 -76.7651 19° North  Level Estimated
Tue 05:38:00 PM 40.5868 -76.7349 19° North  Level Estimated
Tue 05:39:00 PM 40.6535 -76.7046 19° North  Level Estimated
Tue 05:40:00 PM 40.7201 -76.6742 19° North  Level Estimated
Tue 05:41:00 PM 40.7868 -76.6438 19° North  Level Estimated
Tue 05:42:00 PM 40.8534 -76.6134 19° North  Level Estimated
Tue 05:43:00 PM 40.9201 -76.5829 19° North  Level Estimated
Tue 05:44:00 PM 40.9867 -76.5523 19° North  Level Estimated
Tue 05:45:00 PM 41.0533 -76.5216 19° North  Level Estimated
Tue 05:46:00 PM 41.1199 -76.4909 19° North  Level Estimated
Tue 05:47:00 PM 41.1865 -76.4602 19° North  Level Estimated
Tue 05:48:00 PM 41.2531 -76.4293 19° North  Level Estimated
Tue 05:49:00 PM 41.3197 -76.3985 19° North  Level Estimated
Tue 05:50:00 PM 41.3863 -76.3675 19° North  Level Estimated
Tue 05:51:00 PM 41.4529 -76.3365 19° North  Level Estimated
Tue 05:52:00 PM 41.5194 -76.3054 19° North  Level Estimated
Tue 05:53:00 PM 41.5860 -76.2742 19° North  Level Estimated
Tue 05:54:00 PM 41.6525 -76.2430 19° North  Level Estimated
Tue 05:55:00 PM 41.7191 -76.2118 19° North  Level Estimated
Tue 05:56:00 PM 41.7856 -76.1804 19° North  Level Estimated
Tue 05:57:00 PM 41.8521 -76.1490 19° North  Level Estimated
Tue 05:58:00 PM 41.9186 -76.1176 19° North  Level Estimated
Tue 05:59:00 PM 41.9851 -76.0860 19° North  Level Estimated
Tue 06:00:00 PM 42.0516 -76.0544 19° North  Level Estimated
Tue 06:01:00 PM 42.1181 -76.0227 19° North  Level Estimated
Tue 06:02:00 PM 42.1846 -75.9910 19° North  Level Estimated
Tue 06:03:00 PM 42.2084 -75.9796 20° North  Level Estimated
Tue 06:04:00 PM 42.2084 -75.9796 35° Northeast  Level Estimated
Tue 06:05:00 PM 42.2084 -75.9796 35° Northeast  Level Estimated
Tue 06:06:00 PM 42.2084 -75.9796 35° Northeast  Level Estimated
Tue 06:07:00 PM 42.2084 -75.9796 35° Northeast  Level Estimated
Tue 06:08:00 PM 42.2084 -75.9796 35° Northeast  Level Estimated
Tue 06:09:00 PM 42.2084 -75.9796 35° Northeast  Level Estimated
Tue 06:10:00 PM 42.2084 -75.9796 35° Northeast  Level Estimated
Tue 06:11:00 PM 42.2084 -75.9796 35° Northeast  Level Estimated

Login

Don't have an account? Register now (free) for customized features, flight alerts, and more!